sensor_id;sensor_type;location;lat;lon;timestamp;P1;durP1;ratioP1;P2;durP2;ratioP2
13807;SDS011;40769;51.512;5.494;2022-10-16T00:01:26;1.70;;;1.60;;
13807;SDS011;40769;51.512;5.494;2022-10-16T00:03:52;1.88;;;1.65;;
13807;SDS011;40769;51.512;5.494;2022-10-16T00:06:20;2.28;;;1.60;;
13807;SDS011;40769;51.512;5.494;2022-10-16T00:08:47;3.25;;;1.70;;
13807;SDS011;40769;51.512;5.494;2022-10-16T00:11:18;1.65;;;1.50;;
13807;SDS011;40769;51.512;5.494;2022-10-16T00:13:46;1.45;;;1.35;;
13807;SDS011;40769;51.512;5.494;2022-10-16T00:16:13;2.15;;;1.77;;
13807;SDS011;40769;51.512;5.494;2022-10-16T00:18:39;1.95;;;1.80;;
13807;SDS011;40769;51.512;5.494;2022-10-16T00:21:07;2.22;;;2.03;;
13807;SDS011;40769;51.512;5.494;2022-10-16T00:23:34;1.70;;;1.55;;
13807;SDS011;40769;51.512;5.494;2022-10-16T00:26:02;2.40;;;1.70;;
13807;SDS011;40769;51.512;5.494;2022-10-16T00:28:29;3.13;;;1.80;;
13807;SDS011;40769;51.512;5.494;2022-10-16T00:30:55;3.10;;;1.42;;
13807;SDS011;40769;51.512;5.494;2022-10-16T00:33:21;1.50;;;1.38;;
13807;SDS011;40769;51.512;5.494;2022-10-16T00:35:47;1.73;;;1.63;;
13807;SDS011;40769;51.512;5.494;2022-10-16T00:38:12;2.17;;;1.55;;
13807;SDS011;40769;51.512;5.494;2022-10-16T00:40:38;1.90;;;1.60;;
13807;SDS011;40769;51.512;5.494;2022-10-16T00:43:14;1.77;;;1.50;;
13807;SDS011;40769;51.512;5.494;2022-10-16T00:45:57;1.45;;;1.35;;
13807;SDS011;40769;51.512;5.494;2022-10-16T00:48:23;1.40;;;1.30;;
13807;SDS011;40769;51.512;5.494;2022-10-16T00:50:48;1.75;;;1.65;;
13807;SDS011;40769;51.512;5.494;2022-10-16T00:53:14;1.50;;;1.40;;
13807;SDS011;40769;51.512;5.494;2022-10-16T00:55:41;2.28;;;1.30;;
13807;SDS011;40769;51.512;5.494;2022-10-16T00:58:06;1.23;;;1.13;;
13807;SDS011;40769;51.512;5.494;2022-10-16T01:00:32;1.55;;;1.45;;
13807;SDS011;40769;51.512;5.494;2022-10-16T01:02:59;1.65;;;1.50;;
13807;SDS011;40769;51.512;5.494;2022-10-16T01:05:33;1.58;;;1.48;;
13807;SDS011;40769;51.512;5.494;2022-10-16T01:08:13;1.27;;;1.15;;
13807;SDS011;40769;51.512;5.494;2022-10-16T01:11:01;1.60;;;1.13;;
13807;SDS011;40769;51.512;5.494;2022-10-16T01:13:42;1.08;;;0.98;;
13807;SDS011;40769;51.512;5.494;2022-10-16T01:16:15;1.33;;;1.23;;
13807;SDS011;40769;51.512;5.494;2022-10-16T01:18:59;1.27;;;1.10;;
13807;SDS011;40769;51.512;5.494;2022-10-16T01:21:45;1.48;;;1.30;;
13807;SDS011;40769;51.512;5.494;2022-10-16T01:29:36;1.38;;;1.27;;
13807;SDS011;40769;51.512;5.494;2022-10-16T01:35:18;1.65;;;1.40;;
13807;SDS011;40769;51.512;5.494;2022-10-16T01:40:36;1.90;;;1.20;;
13807;SDS011;40769;51.512;5.494;2022-10-16T01:43:05;1.35;;;1.25;;
13807;SDS011;40769;51.512;5.494;2022-10-16T01:45:32;1.30;;;1.20;;
13807;SDS011;40769;51.512;5.494;2022-10-16T01:48:00;1.58;;;1.27;;
13807;SDS011;40769;51.512;5.494;2022-10-16T01:50:29;1.55;;;1.45;;
13807;SDS011;40769;51.512;5.494;2022-10-16T01:52:58;1.50;;;1.40;;
13807;SDS011;40769;51.512;5.494;2022-10-16T01:55:29;1.35;;;1.25;;
13807;SDS011;40769;51.512;5.494;2022-10-16T01:57:58;1.50;;;1.40;;
13807;SDS011;40769;51.512;5.494;2022-10-16T02:00:27;1.83;;;1.50;;
13807;SDS011;40769;51.512;5.494;2022-10-16T02:02:55;1.40;;;1.30;;
13807;SDS011;40769;51.512;5.494;2022-10-16T02:05:26;1.35;;;1.25;;
13807;SDS011;40769;51.512;5.494;2022-10-16T02:08:10;1.20;;;1.10;;
13807;SDS011;40769;51.512;5.494;2022-10-16T02:10:36;1.55;;;1.40;;
13807;SDS011;40769;51.512;5.494;2022-10-16T02:15:34;1.55;;;1.17;;
13807;SDS011;40769;51.512;5.494;2022-10-16T02:18:01;1.40;;;1.20;;
13807;SDS011;40769;51.512;5.494;2022-10-16T02:20:28;1.33;;;1.23;;
13807;SDS011;40769;51.512;5.494;2022-10-16T02:22:57;1.40;;;1.27;;
13807;SDS011;40769;51.512;5.494;2022-10-16T02:25:31;1.30;;;1.20;;
13807;SDS011;40769;51.512;5.494;2022-10-16T02:28:04;2.15;;;1.27;;
13807;SDS011;40769;51.512;5.494;2022-10-16T02:30:35;1.92;;;1.17;;
13807;SDS011;40769;51.512;5.494;2022-10-16T02:33:06;1.45;;;1.35;;
13807;SDS011;40769;51.512;5.494;2022-10-16T02:35:34;1.38;;;1.05;;
13807;SDS011;40769;51.512;5.494;2022-10-16T02:38:01;1.20;;;1.10;;
13807;SDS011;40769;51.512;5.494;2022-10-16T02:40:28;1.25;;;1.15;;
13807;SDS011;40769;51.512;5.494;2022-10-16T02:42:54;1.80;;;1.17;;
13807;SDS011;40769;51.512;5.494;2022-10-16T02:45:20;1.10;;;1.00;;
13807;SDS011;40769;51.512;5.494;2022-10-16T02:47:47;1.30;;;1.20;;
13807;SDS011;40769;51.512;5.494;2022-10-16T02:50:13;1.70;;;1.38;;
13807;SDS011;40769;51.512;5.494;2022-10-16T02:52:39;1.20;;;1.10;;
13807;SDS011;40769;51.512;5.494;2022-10-16T02:55:05;1.30;;;1.20;;
13807;SDS011;40769;51.512;5.494;2022-10-16T02:57:31;1.88;;;1.30;;
13807;SDS011;40769;51.512;5.494;2022-10-16T02:59:56;2.00;;;1.50;;
13807;SDS011;40769;51.512;5.494;2022-10-16T03:02:22;1.42;;;1.30;;
13807;SDS011;40769;51.512;5.494;2022-10-16T03:04:48;1.33;;;1.02;;
13807;SDS011;40769;51.512;5.494;2022-10-16T03:07:14;1.63;;;1.33;;
13807;SDS011;40769;51.512;5.494;2022-10-16T03:09:40;1.73;;;1.55;;
13807;SDS011;40769;51.512;5.494;2022-10-16T03:12:05;1.50;;;1.40;;
13807;SDS011;40769;51.512;5.494;2022-10-16T03:14:31;1.38;;;1.27;;
13807;SDS011;40769;51.512;5.494;2022-10-16T03:16:57;1.48;;;1.38;;
13807;SDS011;40769;51.512;5.494;2022-10-16T03:19:23;1.67;;;1.23;;
13807;SDS011;40769;51.512;5.494;2022-10-16T03:21:48;1.13;;;1.02;;
13807;SDS011;40769;51.512;5.494;2022-10-16T03:24:14;1.17;;;1.08;;
13807;SDS011;40769;51.512;5.494;2022-10-16T03:26:40;2.00;;;1.30;;
13807;SDS011;40769;51.512;5.494;2022-10-16T03:29:05;1.33;;;0.98;;
13807;SDS011;40769;51.512;5.494;2022-10-16T03:31:31;1.85;;;1.23;;
13807;SDS011;40769;51.512;5.494;2022-10-16T03:33:57;1.90;;;1.17;;
13807;SDS011;40769;51.512;5.494;2022-10-16T03:36:22;1.38;;;1.10;;
13807;SDS011;40769;51.512;5.494;2022-10-16T03:38:48;0.98;;;0.88;;
13807;SDS011;40769;51.512;5.494;2022-10-16T03:41:13;1.35;;;1.10;;
13807;SDS011;40769;51.512;5.494;2022-10-16T03:43:39;1.20;;;1.10;;
13807;SDS011;40769;51.512;5.494;2022-10-16T03:46:05;1.33;;;1.13;;
13807;SDS011;40769;51.512;5.494;2022-10-16T03:48:30;1.45;;;1.20;;
13807;SDS011;40769;51.512;5.494;2022-10-16T03:50:57;2.20;;;1.10;;
13807;SDS011;40769;51.512;5.494;2022-10-16T03:53:22;1.42;;;0.88;;
13807;SDS011;40769;51.512;5.494;2022-10-16T03:55:48;1.30;;;1.10;;
13807;SDS011;40769;51.512;5.494;2022-10-16T03:58:14;1.25;;;1.15;;
13807;SDS011;40769;51.512;5.494;2022-10-16T04:00:43;2.05;;;1.20;;
13807;SDS011;40769;51.512;5.494;2022-10-16T04:03:09;1.00;;;0.90;;
13807;SDS011;40769;51.512;5.494;2022-10-16T04:05:36;2.30;;;1.45;;
13807;SDS011;40769;51.512;5.494;2022-10-16T04:08:02;1.67;;;1.30;;
13807;SDS011;40769;51.512;5.494;2022-10-16T04:10:27;1.50;;;1.20;;
13807;SDS011;40769;51.512;5.494;2022-10-16T04:12:53;2.00;;;1.38;;
13807;SDS011;40769;51.512;5.494;2022-10-16T04:15:20;1.30;;;1.20;;
13807;SDS011;40769;51.512;5.494;2022-10-16T04:17:47;1.65;;;1.00;;
13807;SDS011;40769;51.512;5.494;2022-10-16T04:20:12;2.25;;;1.30;;
13807;SDS011;40769;51.512;5.494;2022-10-16T04:22:38;1.10;;;1.00;;
13807;SDS011;40769;51.512;5.494;2022-10-16T04:25:04;1.65;;;1.33;;
13807;SDS011;40769;51.512;5.494;2022-10-16T04:27:29;1.75;;;1.25;;
13807;SDS011;40769;51.512;5.494;2022-10-16T04:29:56;2.25;;;1.40;;
13807;SDS011;40769;51.512;5.494;2022-10-16T04:32:22;2.00;;;1.40;;
13807;SDS011;40769;51.512;5.494;2022-10-16T04:34:48;1.60;;;1.30;;
13807;SDS011;40769;51.512;5.494;2022-10-16T04:37:14;1.50;;;1.40;;
13807;SDS011;40769;51.512;5.494;2022-10-16T04:39:39;1.40;;;1.27;;
13807;SDS011;40769;51.512;5.494;2022-10-16T04:42:05;1.60;;;1.20;;
13807;SDS011;40769;51.512;5.494;2022-10-16T04:44:31;1.40;;;1.30;;
13807;SDS011;40769;51.512;5.494;2022-10-16T04:46:56;2.08;;;1.40;;
13807;SDS011;40769;51.512;5.494;2022-10-16T04:49:22;1.60;;;1.30;;
13807;SDS011;40769;51.512;5.494;2022-10-16T04:51:47;1.30;;;1.20;;
13807;SDS011;40769;51.512;5.494;2022-10-16T04:54:13;1.25;;;1.13;;
13807;SDS011;40769;51.512;5.494;2022-10-16T04:56:38;1.70;;;1.20;;
13807;SDS011;40769;51.512;5.494;2022-10-16T04:59:12;1.45;;;1.23;;
13807;SDS011;40769;51.512;5.494;2022-10-16T05:01:38;1.67;;;1.35;;
13807;SDS011;40769;51.512;5.494;2022-10-16T05:04:04;1.10;;;1.00;;
13807;SDS011;40769;51.512;5.494;2022-10-16T05:06:30;2.22;;;1.50;;
13807;SDS011;40769;51.512;5.494;2022-10-16T05:08:56;1.95;;;1.27;;
13807;SDS011;40769;51.512;5.494;2022-10-16T05:11:21;2.00;;;1.52;;
13807;SDS011;40769;51.512;5.494;2022-10-16T05:13:47;2.00;;;1.50;;
13807;SDS011;40769;51.512;5.494;2022-10-16T05:16:12;1.67;;;1.58;;
13807;SDS011;40769;51.512;5.494;2022-10-16T05:18:38;2.30;;;1.23;;
13807;SDS011;40769;51.512;5.494;2022-10-16T05:21:03;1.88;;;1.67;;
13807;SDS011;40769;51.512;5.494;2022-10-16T05:23:30;1.83;;;1.63;;
13807;SDS011;40769;51.512;5.494;2022-10-16T05:25:56;1.92;;;1.50;;
13807;SDS011;40769;51.512;5.494;2022-10-16T05:28:25;1.88;;;1.52;;
13807;SDS011;40769;51.512;5.494;2022-10-16T05:30:52;1.60;;;1.50;;
13807;SDS011;40769;51.512;5.494;2022-10-16T05:33:22;1.60;;;1.50;;
13807;SDS011;40769;51.512;5.494;2022-10-16T05:35:49;1.75;;;1.65;;
13807;SDS011;40769;51.512;5.494;2022-10-16T05:38:15;3.03;;;1.52;;
13807;SDS011;40769;51.512;5.494;2022-10-16T05:40:41;1.70;;;1.60;;
13807;SDS011;40769;51.512;5.494;2022-10-16T05:43:07;1.88;;;1.45;;
13807;SDS011;40769;51.512;5.494;2022-10-16T05:45:33;2.22;;;1.73;;
13807;SDS011;40769;51.512;5.494;2022-10-16T05:47:59;2.00;;;1.75;;
13807;SDS011;40769;51.512;5.494;2022-10-16T05:50:25;2.15;;;1.75;;
13807;SDS011;40769;51.512;5.494;2022-10-16T05:52:50;2.92;;;1.77;;
13807;SDS011;40769;51.512;5.494;2022-10-16T05:55:16;2.08;;;1.88;;
13807;SDS011;40769;51.512;5.494;2022-10-16T05:57:41;1.70;;;1.60;;
13807;SDS011;40769;51.512;5.494;2022-10-16T06:00:07;1.92;;;1.80;;
13807;SDS011;40769;51.512;5.494;2022-10-16T06:02:33;2.83;;;1.70;;
13807;SDS011;40769;51.512;5.494;2022-10-16T06:04:59;2.38;;;1.95;;
13807;SDS011;40769;51.512;5.494;2022-10-16T06:07:24;2.25;;;1.80;;
13807;SDS011;40769;51.512;5.494;2022-10-16T06:09:50;2.25;;;1.85;;
13807;SDS011;40769;51.512;5.494;2022-10-16T06:12:17;1.88;;;1.60;;
13807;SDS011;40769;51.512;5.494;2022-10-16T06:14:42;1.83;;;1.73;;
13807;SDS011;40769;51.512;5.494;2022-10-16T06:17:09;2.88;;;1.80;;
13807;SDS011;40769;51.512;5.494;2022-10-16T06:19:35;3.05;;;1.90;;
13807;SDS011;40769;51.512;5.494;2022-10-16T06:22:00;1.77;;;1.67;;
13807;SDS011;40769;51.512;5.494;2022-10-16T06:24:27;2.03;;;1.83;;
13807;SDS011;40769;51.512;5.494;2022-10-16T06:26:53;1.60;;;1.50;;
13807;SDS011;40769;51.512;5.494;2022-10-16T06:29:18;1.63;;;1.30;;
13807;SDS011;40769;51.512;5.494;2022-10-16T06:31:44;2.30;;;1.55;;
13807;SDS011;40769;51.512;5.494;2022-10-16T06:34:10;1.73;;;1.63;;
13807;SDS011;40769;51.512;5.494;2022-10-16T06:36:36;1.40;;;1.30;;
13807;SDS011;40769;51.512;5.494;2022-10-16T06:39:03;1.83;;;1.67;;
13807;SDS011;40769;51.512;5.494;2022-10-16T06:41:30;1.67;;;1.45;;
13807;SDS011;40769;51.512;5.494;2022-10-16T06:43:56;1.55;;;1.40;;
13807;SDS011;40769;51.512;5.494;2022-10-16T06:46:22;1.40;;;1.15;;
13807;SDS011;40769;51.512;5.494;2022-10-16T06:48:49;1.73;;;1.38;;
13807;SDS011;40769;51.512;5.494;2022-10-16T06:51:16;1.55;;;1.27;;
13807;SDS011;40769;51.512;5.494;2022-10-16T06:53:47;1.75;;;1.65;;
13807;SDS011;40769;51.512;5.494;2022-10-16T06:56:17;2.30;;;1.55;;
13807;SDS011;40769;51.512;5.494;2022-10-16T06:58:47;1.60;;;1.38;;
13807;SDS011;40769;51.512;5.494;2022-10-16T07:01:14;1.95;;;1.70;;
13807;SDS011;40769;51.512;5.494;2022-10-16T07:03:41;2.10;;;1.77;;
13807;SDS011;40769;51.512;5.494;2022-10-16T07:06:09;1.73;;;1.48;;
13807;SDS011;40769;51.512;5.494;2022-10-16T07:08:36;1.50;;;1.40;;
13807;SDS011;40769;51.512;5.494;2022-10-16T07:11:04;2.67;;;1.90;;
13807;SDS011;40769;51.512;5.494;2022-10-16T07:13:34;2.03;;;1.63;;
13807;SDS011;40769;51.512;5.494;2022-10-16T07:16:05;1.48;;;1.38;;
13807;SDS011;40769;51.512;5.494;2022-10-16T07:18:35;2.60;;;1.58;;
13807;SDS011;40769;51.512;5.494;2022-10-16T07:23:30;1.42;;;1.33;;
13807;SDS011;40769;51.512;5.494;2022-10-16T07:25:55;1.38;;;1.27;;
13807;SDS011;40769;51.512;5.494;2022-10-16T07:28:21;1.38;;;1.27;;
13807;SDS011;40769;51.512;5.494;2022-10-16T07:30:47;2.33;;;1.58;;
13807;SDS011;40769;51.512;5.494;2022-10-16T07:33:13;1.75;;;1.40;;
13807;SDS011;40769;51.512;5.494;2022-10-16T07:35:47;1.38;;;1.20;;
13807;SDS011;40769;51.512;5.494;2022-10-16T07:38:16;1.17;;;1.08;;
13807;SDS011;40769;51.512;5.494;2022-10-16T07:40:42;1.40;;;1.30;;
13807;SDS011;40769;51.512;5.494;2022-10-16T07:43:08;2.30;;;1.30;;
13807;SDS011;40769;51.512;5.494;2022-10-16T07:45:33;1.50;;;1.33;;
13807;SDS011;40769;51.512;5.494;2022-10-16T07:47:59;1.50;;;1.40;;
13807;SDS011;40769;51.512;5.494;2022-10-16T07:50:24;1.58;;;1.25;;
13807;SDS011;40769;51.512;5.494;2022-10-16T07:52:50;1.23;;;1.13;;
13807;SDS011;40769;51.512;5.494;2022-10-16T07:55:16;1.73;;;1.10;;
13807;SDS011;40769;51.512;5.494;2022-10-16T07:57:42;2.70;;;1.33;;
13807;SDS011;40769;51.512;5.494;2022-10-16T08:00:08;1.40;;;1.05;;
13807;SDS011;40769;51.512;5.494;2022-10-16T08:02:38;1.55;;;1.15;;
13807;SDS011;40769;51.512;5.494;2022-10-16T08:05:05;1.73;;;1.25;;
13807;SDS011;40769;51.512;5.494;2022-10-16T08:07:31;2.75;;;1.10;;
13807;SDS011;40769;51.512;5.494;2022-10-16T08:10:00;2.28;;;1.27;;
13807;SDS011;40769;51.512;5.494;2022-10-16T08:12:26;1.88;;;1.40;;
13807;SDS011;40769;51.512;5.494;2022-10-16T08:14:51;1.60;;;1.20;;
13807;SDS011;40769;51.512;5.494;2022-10-16T08:17:17;2.97;;;1.10;;
13807;SDS011;40769;51.512;5.494;2022-10-16T08:19:46;2.53;;;1.20;;
13807;SDS011;40769;51.512;5.494;2022-10-16T08:22:12;1.10;;;1.00;;
13807;SDS011;40769;51.512;5.494;2022-10-16T08:24:40;1.92;;;1.27;;
13807;SDS011;40769;51.512;5.494;2022-10-16T08:27:06;1.88;;;0.95;;
13807;SDS011;40769;51.512;5.494;2022-10-16T08:29:33;1.67;;;1.10;;
13807;SDS011;40769;51.512;5.494;2022-10-16T08:31:59;2.20;;;1.30;;
13807;SDS011;40769;51.512;5.494;2022-10-16T08:34:25;1.30;;;1.20;;
13807;SDS011;40769;51.512;5.494;2022-10-16T08:36:52;1.90;;;1.20;;
13807;SDS011;40769;51.512;5.494;2022-10-16T08:39:18;1.65;;;1.08;;
13807;SDS011;40769;51.512;5.494;2022-10-16T08:44:30;1.55;;;0.85;;
13807;SDS011;40769;51.512;5.494;2022-10-16T08:50:10;1.67;;;1.13;;
13807;SDS011;40769;51.512;5.494;2022-10-16T08:52:42;1.55;;;0.98;;
13807;SDS011;40769;51.512;5.494;2022-10-16T08:55:17;1.80;;;1.05;;
13807;SDS011;40769;51.512;5.494;2022-10-16T08:58:21;1.42;;;1.10;;
13807;SDS011;40769;51.512;5.494;2022-10-16T09:00:53;2.08;;;1.25;;
13807;SDS011;40769;51.512;5.494;2022-10-16T09:11:47;1.48;;;0.82;;
13807;SDS011;40769;51.512;5.494;2022-10-16T09:14:37;2.05;;;1.35;;
13807;SDS011;40769;51.512;5.494;2022-10-16T09:23:18;1.73;;;1.17;;
13807;SDS011;40769;51.512;5.494;2022-10-16T09:25:50;2.20;;;1.38;;
13807;SDS011;40769;51.512;5.494;2022-10-16T09:28:16;2.72;;;1.48;;
13807;SDS011;40769;51.512;5.494;2022-10-16T09:30:43;1.77;;;1.15;;
13807;SDS011;40769;51.512;5.494;2022-10-16T09:33:09;1.55;;;1.27;;
13807;SDS011;40769;51.512;5.494;2022-10-16T09:35:41;1.50;;;1.25;;
13807;SDS011;40769;51.512;5.494;2022-10-16T09:38:09;1.65;;;1.10;;
13807;SDS011;40769;51.512;5.494;2022-10-16T09:40:47;1.75;;;1.50;;
13807;SDS011;40769;51.512;5.494;2022-10-16T09:43:20;1.98;;;1.30;;
13807;SDS011;40769;51.512;5.494;2022-10-16T09:46:04;1.88;;;1.20;;
13807;SDS011;40769;51.512;5.494;2022-10-16T09:51:16;1.73;;;1.25;;
13807;SDS011;40769;51.512;5.494;2022-10-16T09:54:33;3.45;;;1.30;;
13807;SDS011;40769;51.512;5.494;2022-10-16T09:56:43;3.58;;;1.08;;
13807;SDS011;40769;51.512;5.494;2022-10-16T09:59:20;2.78;;;1.27;;
13807;SDS011;40769;51.512;5.494;2022-10-16T10:01:49;1.98;;;1.10;;
13807;SDS011;40769;51.512;5.494;2022-10-16T10:04:17;1.70;;;0.90;;
13807;SDS011;40769;51.512;5.494;2022-10-16T10:09:21;2.00;;;1.25;;
13807;SDS011;40769;51.512;5.494;2022-10-16T10:11:56;2.45;;;1.05;;
13807;SDS011;40769;51.512;5.494;2022-10-16T10:14:25;1.92;;;1.20;;
13807;SDS011;40769;51.512;5.494;2022-10-16T10:16:52;2.50;;;1.50;;
13807;SDS011;40769;51.512;5.494;2022-10-16T10:19:26;2.47;;;1.35;;
13807;SDS011;40769;51.512;5.494;2022-10-16T10:21:52;2.05;;;1.05;;
13807;SDS011;40769;51.512;5.494;2022-10-16T10:24:19;1.75;;;1.08;;
13807;SDS011;40769;51.512;5.494;2022-10-16T10:26:48;3.97;;;1.88;;
13807;SDS011;40769;51.512;5.494;2022-10-16T10:30:01;2.35;;;1.50;;
13807;SDS011;40769;51.512;5.494;2022-10-16T10:32:35;2.20;;;1.40;;
13807;SDS011;40769;51.512;5.494;2022-10-16T10:35:14;2.50;;;1.40;;
13807;SDS011;40769;51.512;5.494;2022-10-16T10:45:52;2.13;;;1.13;;
13807;SDS011;40769;51.512;5.494;2022-10-16T10:51:12;2.33;;;1.27;;
13807;SDS011;40769;51.512;5.494;2022-10-16T10:56:38;1.77;;;1.00;;
13807;SDS011;40769;51.512;5.494;2022-10-16T11:07:43;3.45;;;1.20;;
13807;SDS011;40769;51.512;5.494;2022-10-16T11:10:20;3.33;;;1.35;;
13807;SDS011;40769;51.512;5.494;2022-10-16T11:12:53;2.33;;;1.40;;
13807;SDS011;40769;51.512;5.494;2022-10-16T11:15:25;1.65;;;0.98;;
13807;SDS011;40769;51.512;5.494;2022-10-16T11:20:25;2.40;;;1.20;;
13807;SDS011;40769;51.512;5.494;2022-10-16T11:23:00;2.95;;;1.05;;
13807;SDS011;40769;51.512;5.494;2022-10-16T11:25:36;3.78;;;1.90;;
13807;SDS011;40769;51.512;5.494;2022-10-16T11:28:03;3.50;;;1.98;;
13807;SDS011;40769;51.512;5.494;2022-10-16T11:30:40;3.05;;;1.20;;
13807;SDS011;40769;51.512;5.494;2022-10-16T11:33:27;4.57;;;1.80;;
13807;SDS011;40769;51.512;5.494;2022-10-16T11:46:39;2.63;;;1.80;;
13807;SDS011;40769;51.512;5.494;2022-10-16T11:49:14;3.20;;;1.58;;
13807;SDS011;40769;51.512;5.494;2022-10-16T11:51:45;2.63;;;1.73;;
13807;SDS011;40769;51.512;5.494;2022-10-16T11:57:26;4.93;;;2.05;;
13807;SDS011;40769;51.512;5.494;2022-10-16T12:02:35;2.83;;;1.20;;
13807;SDS011;40769;51.512;5.494;2022-10-16T12:05:23;1.98;;;1.67;;
13807;SDS011;40769;51.512;5.494;2022-10-16T12:08:15;2.97;;;1.70;;
13807;SDS011;40769;51.512;5.494;2022-10-16T12:10:43;2.08;;;1.58;;
13807;SDS011;40769;51.512;5.494;2022-10-16T12:18:42;1.77;;;1.20;;
13807;SDS011;40769;51.512;5.494;2022-10-16T12:21:10;1.70;;;1.00;;
13807;SDS011;40769;51.512;5.494;2022-10-16T12:23:47;2.78;;;1.20;;
13807;SDS011;40769;51.512;5.494;2022-10-16T12:26:13;2.28;;;1.00;;
13807;SDS011;40769;51.512;5.494;2022-10-16T12:28:48;1.92;;;1.00;;
13807;SDS011;40769;51.512;5.494;2022-10-16T12:31:16;2.38;;;1.02;;
13807;SDS011;40769;51.512;5.494;2022-10-16T12:33:56;2.75;;;1.30;;
13807;SDS011;40769;51.512;5.494;2022-10-16T12:36:29;1.92;;;1.10;;
13807;SDS011;40769;51.512;5.494;2022-10-16T12:38:58;1.25;;;0.90;;
13807;SDS011;40769;51.512;5.494;2022-10-16T12:43:58;2.28;;;0.90;;
13807;SDS011;40769;51.512;5.494;2022-10-16T12:49:04;2.78;;;1.30;;
13807;SDS011;40769;51.512;5.494;2022-10-16T13:02:21;1.90;;;1.13;;
13807;SDS011;40769;51.512;5.494;2022-10-16T13:10:35;1.67;;;0.88;;
13807;SDS011;40769;51.512;5.494;2022-10-16T13:18:51;2.22;;;0.80;;
13807;SDS011;40769;51.512;5.494;2022-10-16T13:24:26;1.65;;;0.77;;
13807;SDS011;40769;51.512;5.494;2022-10-16T13:29:58;1.20;;;0.90;;
13807;SDS011;40769;51.512;5.494;2022-10-16T13:32:44;2.15;;;0.80;;
13807;SDS011;40769;51.512;5.494;2022-10-16T13:35:25;1.92;;;0.98;;
13807;SDS011;40769;51.512;5.494;2022-10-16T13:38:03;1.55;;;1.08;;
13807;SDS011;40769;51.512;5.494;2022-10-16T13:43:17;1.77;;;0.77;;
13807;SDS011;40769;51.512;5.494;2022-10-16T13:45:52;1.13;;;0.85;;
13807;SDS011;40769;51.512;5.494;2022-10-16T13:48:19;0.77;;;0.60;;
13807;SDS011;40769;51.512;5.494;2022-10-16T13:50:44;1.17;;;0.70;;
13807;SDS011;40769;51.512;5.494;2022-10-16T13:53:13;1.40;;;0.65;;
13807;SDS011;40769;51.512;5.494;2022-10-16T13:55:39;2.58;;;1.00;;
13807;SDS011;40769;51.512;5.494;2022-10-16T13:58:10;1.20;;;0.70;;
13807;SDS011;40769;51.512;5.494;2022-10-16T14:00:38;1.65;;;1.25;;
13807;SDS011;40769;51.512;5.494;2022-10-16T14:03:11;2.80;;;1.50;;
13807;SDS011;40769;51.512;5.494;2022-10-16T14:08:15;0.90;;;0.70;;
13807;SDS011;40769;51.512;5.494;2022-10-16T14:10:41;1.23;;;1.00;;
13807;SDS011;40769;51.512;5.494;2022-10-16T14:13:07;2.03;;;1.00;;
13807;SDS011;40769;51.512;5.494;2022-10-16T14:15:40;1.23;;;0.98;;
13807;SDS011;40769;51.512;5.494;2022-10-16T14:18:17;1.00;;;0.77;;
13807;SDS011;40769;51.512;5.494;2022-10-16T14:20:45;0.88;;;0.80;;
13807;SDS011;40769;51.512;5.494;2022-10-16T14:23:30;1.13;;;0.70;;
13807;SDS011;40769;51.512;5.494;2022-10-16T14:26:40;1.02;;;0.93;;
13807;SDS011;40769;51.512;5.494;2022-10-16T14:29:03;0.82;;;0.50;;
13807;SDS011;40769;51.512;5.494;2022-10-16T14:31:36;0.70;;;0.70;;
13807;SDS011;40769;51.512;5.494;2022-10-16T14:34:02;0.98;;;0.70;;
13807;SDS011;40769;51.512;5.494;2022-10-16T14:36:28;0.80;;;0.60;;
13807;SDS011;40769;51.512;5.494;2022-10-16T14:39:02;0.60;;;0.60;;
13807;SDS011;40769;51.512;5.494;2022-10-16T14:41:31;1.00;;;0.60;;
13807;SDS011;40769;51.512;5.494;2022-10-16T14:44:04;0.70;;;0.70;;
13807;SDS011;40769;51.512;5.494;2022-10-16T14:46:37;0.75;;;0.50;;
13807;SDS011;40769;51.512;5.494;2022-10-16T14:51:37;0.85;;;0.52;;
13807;SDS011;40769;51.512;5.494;2022-10-16T14:54:25;0.70;;;0.60;;
13807;SDS011;40769;51.512;5.494;2022-10-16T14:56:51;1.13;;;0.77;;
13807;SDS011;40769;51.512;5.494;2022-10-16T14:59:22;2.08;;;1.10;;
13807;SDS011;40769;51.512;5.494;2022-10-16T15:01:53;1.05;;;0.85;;
13807;SDS011;40769;51.512;5.494;2022-10-16T15:04:19;1.60;;;1.40;;
13807;SDS011;40769;51.512;5.494;2022-10-16T15:06:44;1.85;;;1.05;;
13807;SDS011;40769;51.512;5.494;2022-10-16T15:09:10;1.40;;;0.90;;
13807;SDS011;40769;51.512;5.494;2022-10-16T15:11:36;1.10;;;0.80;;
13807;SDS011;40769;51.512;5.494;2022-10-16T15:14:02;1.30;;;0.90;;
13807;SDS011;40769;51.512;5.494;2022-10-16T15:16:28;1.30;;;0.90;;
13807;SDS011;40769;51.512;5.494;2022-10-16T15:18:54;1.45;;;0.77;;
13807;SDS011;40769;51.512;5.494;2022-10-16T15:21:22;1.70;;;0.82;;
13807;SDS011;40769;51.512;5.494;2022-10-16T15:23:51;0.90;;;0.70;;
13807;SDS011;40769;51.512;5.494;2022-10-16T15:26:17;1.00;;;0.90;;
13807;SDS011;40769;51.512;5.494;2022-10-16T15:28:42;1.48;;;0.75;;
13807;SDS011;40769;51.512;5.494;2022-10-16T15:31:08;1.20;;;0.90;;
13807;SDS011;40769;51.512;5.494;2022-10-16T15:33:34;3.80;;;2.53;;
13807;SDS011;40769;51.512;5.494;2022-10-16T15:36:00;2.03;;;1.77;;
13807;SDS011;40769;51.512;5.494;2022-10-16T15:38:26;1.90;;;1.60;;
13807;SDS011;40769;51.512;5.494;2022-10-16T15:40:53;2.10;;;1.30;;
13807;SDS011;40769;51.512;5.494;2022-10-16T15:43:19;0.93;;;0.80;;
13807;SDS011;40769;51.512;5.494;2022-10-16T15:48:31;1.10;;;0.90;;
13807;SDS011;40769;51.512;5.494;2022-10-16T15:50:58;1.10;;;1.00;;
13807;SDS011;40769;51.512;5.494;2022-10-16T15:53:24;0.93;;;0.82;;
13807;SDS011;40769;51.512;5.494;2022-10-16T15:55:50;1.17;;;0.95;;
13807;SDS011;40769;51.512;5.494;2022-10-16T15:58:16;1.80;;;1.20;;
13807;SDS011;40769;51.512;5.494;2022-10-16T16:00:41;1.15;;;1.05;;
13807;SDS011;40769;51.512;5.494;2022-10-16T16:03:07;2.22;;;1.48;;
13807;SDS011;40769;51.512;5.494;2022-10-16T16:05:32;1.60;;;1.50;;
13807;SDS011;40769;51.512;5.494;2022-10-16T16:08:00;1.20;;;0.82;;
13807;SDS011;40769;51.512;5.494;2022-10-16T16:10:25;1.40;;;1.00;;
13807;SDS011;40769;51.512;5.494;2022-10-16T16:12:51;1.67;;;0.98;;
13807;SDS011;40769;51.512;5.494;2022-10-16T16:15:21;1.10;;;0.90;;
13807;SDS011;40769;51.512;5.494;2022-10-16T16:17:47;1.00;;;0.90;;
13807;SDS011;40769;51.512;5.494;2022-10-16T16:20:13;0.63;;;0.60;;
13807;SDS011;40769;51.512;5.494;2022-10-16T16:22:39;1.17;;;0.90;;
13807;SDS011;40769;51.512;5.494;2022-10-16T16:25:05;1.42;;;1.15;;
13807;SDS011;40769;51.512;5.494;2022-10-16T16:27:30;2.75;;;1.83;;
13807;SDS011;40769;51.512;5.494;2022-10-16T16:29:58;2.00;;;1.80;;
13807;SDS011;40769;51.512;5.494;2022-10-16T16:32:24;1.92;;;1.40;;
13807;SDS011;40769;51.512;5.494;2022-10-16T16:34:50;1.48;;;1.20;;
13807;SDS011;40769;51.512;5.494;2022-10-16T16:37:15;1.52;;;0.93;;
13807;SDS011;40769;51.512;5.494;2022-10-16T16:39:41;1.63;;;1.20;;
13807;SDS011;40769;51.512;5.494;2022-10-16T16:42:07;1.48;;;1.00;;
13807;SDS011;40769;51.512;5.494;2022-10-16T16:44:33;1.10;;;0.98;;
13807;SDS011;40769;51.512;5.494;2022-10-16T16:47:01;1.52;;;1.42;;
13807;SDS011;40769;51.512;5.494;2022-10-16T16:49:27;1.40;;;1.30;;
13807;SDS011;40769;51.512;5.494;2022-10-16T16:51:52;1.60;;;1.50;;
13807;SDS011;40769;51.512;5.494;2022-10-16T16:54:18;2.42;;;2.10;;
13807;SDS011;40769;51.512;5.494;2022-10-16T16:56:44;2.97;;;2.15;;
13807;SDS011;40769;51.512;5.494;2022-10-16T16:59:12;2.40;;;2.20;;
13807;SDS011;40769;51.512;5.494;2022-10-16T17:01:39;1.98;;;1.88;;
13807;SDS011;40769;51.512;5.494;2022-10-16T17:04:05;1.88;;;1.70;;
13807;SDS011;40769;51.512;5.494;2022-10-16T17:06:31;1.48;;;1.38;;
13807;SDS011;40769;51.512;5.494;2022-10-16T17:08:57;1.50;;;1.40;;
13807;SDS011;40769;51.512;5.494;2022-10-16T17:11:24;2.20;;;1.40;;